Terminal Aerodrome Forecast
Issued by NWS Binghamton, NY

Home | Current Version | Previous Version | Text Only | Print | Product List | Glossary On
Versions: 1 2 3 4 5 6 7 8 9 10 11 12 13 14 15 16 17 18 19 20
000
FTUS41 KBGM 262341
TAFAVP
TAF
KAVP 262341Z 2700/2724 11005KT 5SM BR OVC012
     FM270500 VRB03KT 4SM -RA BR OVC008 WS020/18035KT
     FM271400 22005KT 5SM -DZ BR OVC008
     FM271800 24007KT P6SM OVC025
     FM272100 25007KT P6SM BKN035=

USA.gov is the U.S. government's official web portal to all federal, state and local government web resources and services.